createdAt,value
2022-09-07T00:00:18.077Z,526.00
2022-09-07T00:00:48.112Z,526.00
2022-09-07T00:01:18.140Z,525.00
2022-09-07T00:01:48.186Z,523.00
2022-09-07T00:02:18.220Z,524.00
2022-09-07T00:02:48.307Z,524.00
2022-09-07T00:03:18.474Z,524.00
2022-09-07T00:03:48.353Z,523.00
2022-09-07T00:04:18.518Z,523.00
2022-09-07T00:04:48.435Z,524.00
2022-09-07T00:05:18.472Z,522.00
2022-09-07T00:05:48.503Z,523.00
2022-09-07T00:06:18.530Z,522.00
2022-09-07T00:06:48.567Z,522.00
2022-09-07T00:07:18.599Z,522.00
2022-09-07T00:07:48.633Z,523.00
2022-09-07T00:08:18.669Z,524.00
2022-09-07T00:08:48.697Z,524.00
2022-09-07T00:09:18.729Z,525.00
2022-09-07T00:09:48.763Z,526.00
2022-09-07T00:10:18.791Z,526.00
2022-09-07T00:10:48.823Z,527.00
2022-09-07T00:11:18.857Z,525.00
2022-09-07T00:11:48.888Z,528.00
2022-09-07T00:12:18.916Z,527.00
2022-09-07T00:12:48.950Z,527.00
2022-09-07T00:13:18.982Z,528.00
2022-09-07T00:13:49.009Z,528.00
2022-09-07T00:14:19.041Z,529.00
2022-09-07T00:14:49.067Z,529.00
2022-09-07T00:15:19.104Z,528.00
2022-09-07T00:15:49.196Z,526.00
2022-09-07T00:16:19.260Z,525.00
2022-09-07T00:16:49.303Z,525.00
2022-09-07T00:17:19.336Z,525.00
2022-09-07T00:17:49.378Z,525.00
2022-09-07T00:18:19.402Z,525.00
2022-09-07T00:18:49.435Z,524.00
2022-09-07T00:19:19.463Z,524.00
2022-09-07T00:19:49.497Z,524.00
2022-09-07T00:20:19.538Z,527.00
2022-09-07T00:20:49.564Z,526.00
2022-09-07T00:21:19.600Z,527.00
2022-09-07T00:21:49.633Z,527.00
2022-09-07T00:22:19.664Z,526.00
2022-09-07T00:22:49.693Z,525.00
2022-09-07T00:23:19.729Z,526.00
2022-09-07T00:23:49.764Z,525.00
2022-09-07T00:24:19.797Z,525.00
2022-09-07T00:24:49.827Z,526.00
2022-09-07T00:25:19.856Z,526.00
2022-09-07T00:25:53.917Z,525.00
2022-09-07T00:26:19.966Z,526.00
2022-09-07T00:26:49.999Z,525.00
2022-09-07T00:27:20.025Z,525.00
2022-09-07T00:27:50.055Z,526.00
2022-09-07T00:28:20.083Z,526.00
2022-09-07T00:28:50.117Z,526.00
2022-09-07T00:29:20.150Z,524.00
2022-09-07T00:29:50.272Z,525.00
2022-09-07T00:30:20.268Z,524.00
2022-09-07T00:30:50.267Z,522.00
2022-09-07T00:31:20.530Z,524.00
2022-09-07T00:31:50.465Z,523.00
2022-09-07T00:32:20.458Z,525.00
2022-09-07T00:32:50.572Z,525.00
2022-09-07T00:33:20.691Z,525.00
2022-09-07T00:33:50.711Z,524.00
2022-09-07T00:34:20.809Z,524.00
2022-09-07T00:34:50.920Z,522.00
2022-09-07T00:35:20.921Z,523.00
2022-09-07T00:35:50.913Z,523.00
2022-09-07T00:36:21.065Z,523.00
2022-09-07T00:36:51.147Z,522.00
2022-09-07T00:37:21.142Z,519.00
2022-09-07T00:37:51.261Z,521.00
2022-09-07T00:38:21.257Z,521.00
2022-09-07T00:38:51.377Z,519.00
2022-09-07T00:39:21.377Z,519.00
2022-09-07T00:39:51.490Z,520.00
2022-09-07T00:40:21.554Z,520.00
2022-09-07T00:40:51.578Z,520.00
2022-09-07T00:41:21.622Z,521.00
2022-09-07T00:41:51.643Z,519.00
2022-09-07T00:42:21.676Z,519.00
2022-09-07T00:42:51.716Z,518.00
2022-09-07T00:43:21.758Z,518.00
2022-09-07T00:43:51.781Z,518.00
2022-09-07T00:44:21.819Z,518.00
2022-09-07T00:44:51.842Z,518.00
2022-09-07T00:45:21.903Z,520.00
2022-09-07T00:45:51.932Z,518.00
2022-09-07T00:46:22.012Z,518.00
2022-09-07T00:46:52.091Z,518.00
2022-09-07T00:47:22.136Z,517.00
2022-09-07T00:47:52.167Z,516.00
2022-09-07T00:48:22.204Z,517.00
2022-09-07T00:48:52.229Z,517.00
2022-09-07T00:49:22.278Z,518.00
2022-09-07T00:49:52.293Z,519.00
2022-09-07T00:50:22.346Z,521.00
2022-09-07T00:50:52.367Z,522.00
2022-09-07T00:51:22.404Z,521.00
2022-09-07T00:51:52.440Z,520.00
2022-09-07T00:52:22.469Z,517.00
2022-09-07T00:52:52.501Z,519.00
2022-09-07T00:53:22.531Z,518.00
2022-09-07T00:53:52.565Z,518.00
2022-09-07T00:54:22.597Z,518.00
2022-09-07T00:54:52.628Z,519.00
2022-09-07T00:55:22.896Z,520.00
2022-09-07T00:55:52.680Z,520.00
2022-09-07T00:56:22.701Z,522.00
2022-09-07T00:56:52.735Z,522.00
2022-09-07T00:57:22.767Z,522.00
2022-09-07T00:57:52.799Z,522.00
2022-09-07T00:58:22.831Z,520.00
2022-09-07T00:58:52.868Z,521.00
2022-09-07T00:59:22.893Z,522.00
2022-09-07T00:59:52.926Z,524.00
2022-09-07T01:00:22.967Z,524.00
2022-09-07T01:00:53.007Z,524.00
2022-09-07T01:01:23.108Z,523.00
2022-09-07T01:01:53.242Z,524.00
2022-09-07T01:02:23.240Z,524.00
2022-09-07T01:02:53.345Z,524.00
2022-09-07T01:03:23.280Z,524.00
2022-09-07T01:03:53.312Z,522.00
2022-09-07T01:04:23.344Z,520.00
2022-09-07T01:04:53.376Z,519.00
2022-09-07T01:05:23.419Z,518.00
2022-09-07T01:05:53.456Z,518.00
2022-09-07T01:06:23.541Z,519.00
2022-09-07T01:06:53.541Z,519.00
2022-09-07T01:07:23.574Z,520.00
2022-09-07T01:07:53.622Z,519.00
2022-09-07T01:08:23.650Z,519.00
2022-09-07T01:08:53.683Z,518.00
2022-09-07T01:09:23.716Z,518.00
2022-09-07T01:09:53.748Z,518.00
2022-09-07T01:10:23.805Z,516.00
2022-09-07T01:10:53.840Z,517.00
2022-09-07T01:11:23.882Z,517.00
2022-09-07T01:11:53.941Z,515.00
2022-09-07T01:12:23.979Z,513.00
2022-09-07T01:12:54.008Z,513.00
2022-09-07T01:13:24.039Z,512.00
2022-09-07T01:13:54.078Z,515.00
2022-09-07T01:14:24.112Z,515.00
2022-09-07T01:14:54.143Z,516.00
2022-09-07T01:15:24.186Z,516.00
2022-09-07T01:15:54.279Z,516.00
2022-09-07T01:16:24.293Z,515.00
2022-09-07T01:16:54.313Z,516.00
2022-09-07T01:17:24.348Z,516.00
2022-09-07T01:17:54.380Z,516.00
2022-09-07T01:18:24.512Z,516.00
2022-09-07T01:18:54.515Z,514.00
2022-09-07T01:19:24.545Z,516.00
2022-09-07T01:19:54.584Z,515.00
2022-09-07T01:20:24.625Z,516.00
2022-09-07T01:20:54.654Z,517.00
2022-09-07T01:21:24.690Z,518.00
2022-09-07T01:21:54.721Z,516.00
2022-09-07T01:22:24.760Z,515.00
2022-09-07T01:22:54.787Z,512.00
2022-09-07T01:23:24.830Z,510.00
2022-09-07T01:23:54.855Z,512.00
2022-09-07T01:24:24.894Z,511.00
2022-09-07T01:24:54.933Z,511.00
2022-09-07T01:25:24.967Z,510.00
2022-09-07T01:25:54.999Z,511.00
2022-09-07T01:26:25.032Z,512.00
2022-09-07T01:26:55.067Z,512.00
2022-09-07T01:27:25.092Z,514.00
2022-09-07T01:27:55.134Z,515.00
2022-09-07T01:28:25.219Z,516.00
2022-09-07T01:28:55.259Z,516.00
2022-09-07T01:29:25.289Z,515.00
2022-09-07T01:29:55.285Z,514.00
2022-09-07T01:30:28.138Z,511.00
2022-09-07T01:30:55.385Z,510.00
2022-09-07T01:31:25.503Z,509.00
2022-09-07T01:31:55.489Z,511.00
2022-09-07T01:32:25.486Z,512.00
2022-09-07T01:32:55.484Z,511.00
2022-09-07T01:33:25.597Z,512.00
2022-09-07T01:33:55.595Z,512.00
2022-09-07T01:34:25.712Z,512.00
2022-09-07T01:34:55.836Z,513.00
2022-09-07T01:35:25.834Z,514.00
2022-09-07T01:35:55.834Z,513.00
2022-09-07T01:36:25.831Z,515.00
2022-09-07T01:36:55.824Z,515.00
2022-09-07T01:37:25.950Z,515.00
2022-09-07T01:37:57.133Z,515.00
2022-09-07T01:38:26.036Z,514.00
2022-09-07T01:38:56.030Z,513.00
2022-09-07T01:39:26.076Z,516.00
2022-09-07T01:39:56.155Z,516.00
2022-09-07T01:40:26.187Z,518.00
2022-09-07T01:40:56.224Z,518.00
2022-09-07T01:41:26.256Z,520.00
2022-09-07T01:41:56.291Z,522.00
2022-09-07T01:42:26.325Z,522.00
2022-09-07T01:42:56.356Z,521.00
2022-09-07T01:43:26.387Z,521.00
2022-09-07T01:43:56.422Z,521.00
2022-09-07T01:44:26.455Z,520.00
2022-09-07T01:44:56.499Z,520.00
2022-09-07T01:45:26.531Z,518.00
2022-09-07T01:45:56.648Z,516.00
2022-09-07T01:46:26.597Z,515.00
2022-09-07T01:46:56.621Z,513.00
2022-09-07T01:47:26.675Z,513.00
2022-09-07T01:47:56.686Z,511.00
2022-09-07T01:48:26.823Z,510.00
2022-09-07T01:48:56.741Z,510.00
2022-09-07T01:49:26.769Z,511.00
2022-09-07T01:49:56.808Z,512.00
2022-09-07T01:50:26.839Z,513.00
2022-09-07T01:50:56.875Z,515.00
2022-09-07T01:51:26.906Z,515.00
2022-09-07T01:51:56.935Z,515.00
2022-09-07T01:52:26.970Z,516.00
2022-09-07T01:52:57.001Z,516.00
2022-09-07T01:53:27.039Z,517.00
2022-09-07T01:53:57.063Z,515.00
2022-09-07T01:54:27.118Z,516.00
2022-09-07T01:54:57.153Z,517.00
2022-09-07T01:55:27.345Z,517.00
2022-09-07T01:55:57.226Z,518.00
2022-09-07T01:56:27.264Z,518.00
2022-09-07T01:56:57.294Z,520.00
2022-09-07T01:57:27.330Z,521.00
2022-09-07T01:57:57.365Z,520.00
2022-09-07T01:58:27.505Z,518.00
2022-09-07T01:58:57.481Z,516.00
2022-09-07T01:59:27.515Z,516.00
2022-09-07T01:59:57.545Z,517.00
2022-09-07T02:00:27.581Z,517.00
2022-09-07T02:00:57.617Z,518.00
2022-09-07T02:01:27.699Z,516.00
2022-09-07T02:01:57.810Z,514.00
2022-09-07T02:02:27.725Z,513.00
2022-09-07T02:02:57.830Z,511.00
2022-09-07T02:03:27.747Z,509.00
2022-09-07T02:03:57.785Z,508.00
2022-09-07T02:04:27.820Z,508.00
2022-09-07T02:04:57.847Z,509.00
2022-09-07T02:05:27.889Z,508.00
2022-09-07T02:05:57.936Z,509.00
2022-09-07T02:06:27.964Z,511.00
2022-09-07T02:06:57.997Z,512.00
2022-09-07T02:07:28.031Z,512.00
2022-09-07T02:07:58.061Z,513.00
2022-09-07T02:08:28.107Z,514.00
2022-09-07T02:08:58.137Z,515.00
2022-09-07T02:09:28.170Z,516.00
2022-09-07T02:09:58.209Z,516.00
2022-09-07T02:10:28.260Z,517.00
2022-09-07T02:10:58.275Z,516.00
2022-09-07T02:11:28.306Z,517.00
2022-09-07T02:11:58.335Z,516.00
2022-09-07T02:12:28.366Z,515.00
2022-09-07T02:12:58.408Z,513.00
2022-09-07T02:13:28.442Z,513.00
2022-09-07T02:13:58.529Z,514.00
2022-09-07T02:14:28.565Z,512.00
2022-09-07T02:14:58.594Z,512.00
2022-09-07T02:15:28.698Z,515.00
2022-09-07T02:15:58.806Z,516.00
2022-09-07T02:16:28.841Z,518.00
2022-09-07T02:16:58.875Z,518.00
2022-09-07T02:17:28.906Z,517.00
2022-09-07T02:17:58.934Z,516.00
2022-09-07T02:18:29.030Z,516.00
2022-09-07T02:18:59.056Z,517.00
2022-09-07T02:19:29.089Z,515.00
2022-09-07T02:19:59.121Z,515.00
2022-09-07T02:20:29.150Z,514.00
2022-09-07T02:20:59.181Z,513.00
2022-09-07T02:21:29.216Z,513.00
2022-09-07T02:21:59.243Z,514.00
2022-09-07T02:22:29.276Z,515.00
2022-09-07T02:22:59.311Z,514.00
2022-09-07T02:23:29.344Z,514.00
2022-09-07T02:23:59.384Z,514.00
2022-09-07T02:24:29.412Z,513.00
2022-09-07T02:24:59.443Z,514.00
2022-09-07T02:25:29.476Z,514.00
2022-09-07T02:25:59.508Z,513.00
2022-09-07T02:26:29.538Z,511.00
2022-09-07T02:26:59.569Z,512.00
2022-09-07T02:27:29.607Z,511.00
2022-09-07T02:27:59.637Z,511.00
2022-09-07T02:28:29.785Z,509.00
2022-09-07T02:28:59.792Z,507.00
2022-09-07T02:29:31.083Z,506.00
2022-09-07T02:29:59.884Z,507.00
2022-09-07T02:30:29.887Z,508.00
2022-09-07T02:31:00.070Z,506.00
2022-09-07T02:31:30.159Z,505.00
2022-09-07T02:32:00.196Z,506.00
2022-09-07T02:32:30.301Z,506.00
2022-09-07T02:33:00.415Z,505.00
2022-09-07T02:33:30.424Z,504.00
2022-09-07T02:34:00.423Z,504.00
2022-09-07T02:34:30.542Z,504.00
2022-09-07T02:35:00.534Z,505.00
2022-09-07T02:35:30.653Z,505.00
2022-09-07T02:36:00.767Z,506.00
2022-09-07T02:36:30.768Z,506.00
2022-09-07T02:37:00.885Z,506.00
2022-09-07T02:37:31.001Z,505.00
2022-09-07T02:38:00.998Z,504.00
2022-09-07T02:38:31.204Z,502.00
2022-09-07T02:39:01.236Z,500.00
2022-09-07T02:39:31.347Z,501.00
2022-09-07T02:40:01.384Z,500.00
2022-09-07T02:40:31.288Z,501.00
2022-09-07T02:41:01.318Z,502.00
2022-09-07T02:41:31.344Z,502.00
2022-09-07T02:42:01.378Z,502.00
2022-09-07T02:42:31.418Z,503.00
2022-09-07T02:43:01.446Z,504.00
2022-09-07T02:43:31.488Z,503.00
2022-09-07T02:44:01.516Z,502.00
2022-09-07T02:44:31.547Z,503.00
2022-09-07T02:45:01.582Z,502.00
2022-09-07T02:45:31.622Z,502.00
2022-09-07T02:46:01.713Z,502.00
2022-09-07T02:46:31.911Z,503.00
2022-09-07T02:47:01.741Z,505.00
2022-09-07T02:47:31.770Z,505.00
2022-09-07T02:48:01.801Z,506.00
2022-09-07T02:48:31.839Z,506.00
2022-09-07T02:49:01.870Z,506.00
2022-09-07T02:49:31.909Z,505.00
2022-09-07T02:50:01.930Z,504.00
2022-09-07T02:50:31.962Z,504.00
2022-09-07T02:51:01.997Z,505.00
2022-09-07T02:51:32.028Z,504.00
2022-09-07T02:52:02.054Z,503.00
2022-09-07T02:52:32.091Z,505.00
2022-09-07T02:53:02.125Z,507.00
2022-09-07T02:53:32.160Z,508.00
2022-09-07T02:54:02.195Z,508.00
2022-09-07T02:54:32.231Z,508.00
2022-09-07T02:55:02.269Z,506.00
2022-09-07T02:55:32.299Z,506.00
2022-09-07T02:56:02.325Z,508.00
2022-09-07T02:56:32.354Z,509.00
2022-09-07T02:57:02.388Z,508.00
2022-09-07T02:57:32.419Z,507.00
2022-09-07T02:58:02.445Z,506.00
2022-09-07T02:58:32.486Z,504.00
2022-09-07T02:59:02.515Z,503.00
2022-09-07T02:59:32.542Z,502.00
2022-09-07T03:00:02.585Z,501.00
2022-09-07T03:00:32.611Z,500.00
2022-09-07T03:01:02.666Z,500.00
2022-09-07T03:01:32.781Z,501.00
2022-09-07T03:02:02.796Z,499.00
2022-09-07T03:02:32.856Z,500.00
2022-09-07T03:03:02.892Z,501.00
2022-09-07T03:03:32.927Z,503.00
2022-09-07T03:04:02.955Z,503.00
2022-09-07T03:04:32.994Z,503.00
2022-09-07T03:05:03.032Z,504.00
2022-09-07T03:05:33.064Z,505.00
2022-09-07T03:06:03.099Z,504.00
2022-09-07T03:06:33.131Z,505.00
2022-09-07T03:07:03.158Z,507.00
2022-09-07T03:07:35.858Z,509.00
2022-09-07T03:08:03.239Z,510.00
2022-09-07T03:08:33.271Z,512.00
2022-09-07T03:09:03.305Z,512.00
2022-09-07T03:09:33.338Z,511.00
2022-09-07T03:10:03.368Z,511.00
2022-09-07T03:10:33.405Z,511.00
2022-09-07T03:11:03.431Z,510.00
2022-09-07T03:11:33.466Z,514.00
2022-09-07T03:12:03.498Z,515.00
2022-09-07T03:12:33.531Z,515.00
2022-09-07T03:13:03.578Z,514.00
2022-09-07T03:13:33.615Z,514.00
2022-09-07T03:14:03.641Z,515.00
2022-09-07T03:14:33.681Z,515.00
2022-09-07T03:15:03.702Z,516.00
2022-09-07T03:15:33.798Z,517.00
2022-09-07T03:16:03.898Z,516.00
2022-09-07T03:16:33.909Z,515.00
2022-09-07T03:17:03.942Z,515.00
2022-09-07T03:17:33.975Z,513.00
2022-09-07T03:18:04.020Z,514.00
2022-09-07T03:18:34.056Z,512.00
2022-09-07T03:19:04.087Z,512.00
2022-09-07T03:19:34.126Z,510.00
2022-09-07T03:20:04.164Z,511.00
2022-09-07T03:20:34.199Z,511.00
2022-09-07T03:21:04.230Z,512.00
2022-09-07T03:21:34.259Z,513.00
2022-09-07T03:22:04.294Z,513.00
2022-09-07T03:22:34.329Z,512.00
2022-09-07T03:23:04.382Z,512.00
2022-09-07T03:23:34.414Z,513.00
2022-09-07T03:24:04.446Z,512.00
2022-09-07T03:24:34.476Z,512.00
2022-09-07T03:25:04.513Z,513.00
2022-09-07T03:25:34.544Z,511.00
2022-09-07T03:26:04.579Z,509.00
2022-09-07T03:26:34.612Z,508.00
2022-09-07T03:27:04.647Z,507.00
2022-09-07T03:27:34.677Z,508.00
2022-09-07T03:28:04.719Z,506.00
2022-09-07T03:28:34.753Z,504.00
2022-09-07T03:29:04.785Z,507.00
2022-09-07T03:29:36.524Z,509.00
2022-09-07T03:30:04.857Z,510.00
2022-09-07T03:30:35.021Z,510.00
2022-09-07T03:31:05.035Z,510.00
2022-09-07T03:31:34.998Z,511.00
2022-09-07T03:32:04.991Z,511.00
2022-09-07T03:32:34.990Z,512.00
2022-09-07T03:33:04.998Z,513.00
2022-09-07T03:33:35.000Z,511.00
2022-09-07T03:34:05.117Z,510.00
2022-09-07T03:34:35.126Z,512.00
2022-09-07T03:35:05.241Z,512.00
2022-09-07T03:35:35.360Z,514.00
2022-09-07T03:36:05.478Z,513.00
2022-09-07T03:36:35.478Z,513.00
2022-09-07T03:37:05.595Z,513.00
2022-09-07T03:37:35.586Z,513.00
2022-09-07T03:38:05.717Z,513.00
2022-09-07T03:38:35.708Z,513.00
2022-09-07T03:39:05.834Z,514.00
2022-09-07T03:39:35.911Z,514.00
2022-09-07T03:40:06.010Z,514.00
2022-09-07T03:40:36.039Z,514.00
2022-09-07T03:41:06.076Z,514.00
2022-09-07T03:41:36.112Z,515.00
2022-09-07T03:42:06.138Z,515.00
2022-09-07T03:42:36.172Z,513.00
2022-09-07T03:43:06.365Z,512.00
2022-09-07T03:43:36.272Z,510.00
2022-09-07T03:44:06.302Z,510.00
2022-09-07T03:44:36.332Z,507.00
2022-09-07T03:45:06.441Z,507.00
2022-09-07T03:45:36.445Z,506.00
2022-09-07T03:46:06.545Z,507.00
2022-09-07T03:46:36.483Z,508.00
2022-09-07T03:47:06.523Z,506.00
2022-09-07T03:47:36.542Z,506.00
2022-09-07T03:48:06.635Z,508.00
2022-09-07T03:48:36.666Z,507.00
2022-09-07T03:49:06.698Z,511.00
2022-09-07T03:49:36.731Z,514.00
2022-09-07T03:50:06.758Z,518.00
2022-09-07T03:50:36.791Z,518.00
2022-09-07T03:51:06.829Z,517.00
2022-09-07T03:51:36.851Z,520.00
2022-09-07T03:52:06.880Z,522.00
2022-09-07T03:52:36.912Z,525.00
2022-09-07T03:53:06.954Z,526.00
2022-09-07T03:53:36.986Z,526.00
2022-09-07T03:54:07.024Z,522.00
2022-09-07T03:54:39.636Z,527.00
2022-09-07T03:55:07.096Z,526.00
2022-09-07T03:55:37.129Z,525.00
2022-09-07T03:56:07.159Z,523.00
2022-09-07T03:56:37.188Z,527.00
2022-09-07T03:57:07.230Z,527.00
2022-09-07T03:57:37.255Z,526.00
2022-09-07T03:58:07.301Z,528.00
2022-09-07T03:58:37.340Z,528.00
2022-09-07T03:59:07.374Z,529.00
2022-09-07T03:59:37.409Z,528.00
2022-09-07T04:00:07.445Z,527.00
2022-09-07T04:00:37.474Z,530.00
2022-09-07T04:01:07.581Z,530.00
2022-09-07T04:01:37.569Z,529.00
2022-09-07T04:02:07.649Z,531.00
2022-09-07T04:02:37.697Z,530.00
2022-09-07T04:03:07.813Z,527.00
2022-09-07T04:03:37.721Z,526.00
2022-09-07T04:04:07.763Z,525.00
2022-09-07T04:04:37.802Z,525.00
2022-09-07T04:05:07.825Z,525.00
2022-09-07T04:05:37.886Z,524.00
2022-09-07T04:06:07.943Z,523.00
2022-09-07T04:06:37.975Z,521.00
2022-09-07T04:07:08.008Z,520.00
2022-09-07T04:07:38.041Z,521.00
2022-09-07T04:08:08.082Z,520.00
2022-09-07T04:08:38.113Z,520.00
2022-09-07T04:09:08.147Z,521.00
2022-09-07T04:09:38.174Z,522.00
2022-09-07T04:10:08.205Z,523.00
2022-09-07T04:10:38.235Z,523.00
2022-09-07T04:11:08.270Z,522.00
2022-09-07T04:11:38.302Z,521.00
2022-09-07T04:12:08.335Z,521.00
2022-09-07T04:12:38.373Z,519.00
2022-09-07T04:13:08.422Z,518.00
2022-09-07T04:13:38.465Z,518.00
2022-09-07T04:14:08.493Z,518.00
2022-09-07T04:14:38.517Z,517.00
2022-09-07T04:15:08.553Z,517.00
2022-09-07T04:15:38.582Z,515.00
2022-09-07T04:16:08.615Z,516.00
2022-09-07T04:16:38.706Z,517.00
2022-09-07T04:17:08.767Z,515.00
2022-09-07T04:17:38.809Z,517.00
2022-09-07T04:18:08.849Z,518.00
2022-09-07T04:18:38.876Z,518.00
2022-09-07T04:19:08.916Z,516.00
2022-09-07T04:19:38.948Z,520.00
2022-09-07T04:20:08.984Z,522.00
2022-09-07T04:20:39.020Z,519.00
2022-09-07T04:21:09.051Z,519.00
2022-09-07T04:21:39.080Z,518.00
2022-09-07T04:22:09.116Z,516.00
2022-09-07T04:22:39.149Z,518.00
2022-09-07T04:23:09.254Z,519.00
2022-09-07T04:23:39.289Z,519.00
2022-09-07T04:24:09.322Z,517.00
2022-09-07T04:24:39.353Z,514.00
2022-09-07T04:25:09.385Z,514.00
2022-09-07T04:25:39.415Z,516.00
2022-09-07T04:26:09.444Z,513.00
2022-09-07T04:26:39.473Z,515.00
2022-09-07T04:27:09.506Z,514.00
2022-09-07T04:27:39.573Z,515.00
2022-09-07T04:28:09.607Z,517.00
2022-09-07T04:28:39.641Z,519.00
2022-09-07T04:29:09.670Z,520.00
2022-09-07T04:29:39.672Z,521.00
2022-09-07T04:30:09.790Z,522.00
2022-09-07T04:30:39.999Z,522.00
2022-09-07T04:31:09.994Z,524.00
2022-09-07T04:31:39.982Z,525.00
2022-09-07T04:32:15.025Z,530.00
2022-09-07T04:32:40.159Z,531.00
2022-09-07T04:33:10.088Z,530.00
2022-09-07T04:33:40.083Z,531.00
2022-09-07T04:34:10.237Z,530.00
2022-09-07T04:34:40.278Z,528.00
2022-09-07T04:35:10.284Z,527.00
2022-09-07T04:35:40.284Z,525.00
2022-09-07T04:36:10.280Z,522.00
2022-09-07T04:36:40.272Z,520.00
2022-09-07T04:37:10.394Z,518.00
2022-09-07T04:37:40.417Z,517.00
2022-09-07T04:38:10.431Z,516.00
2022-09-07T04:38:40.424Z,516.00
2022-09-07T04:39:10.545Z,515.00
2022-09-07T04:39:40.654Z,516.00
2022-09-07T04:40:10.775Z,516.00
2022-09-07T04:40:40.731Z,515.00
2022-09-07T04:41:10.764Z,513.00
2022-09-07T04:41:40.793Z,512.00
2022-09-07T04:42:10.829Z,511.00
2022-09-07T04:42:40.860Z,513.00
2022-09-07T04:43:10.898Z,513.00
2022-09-07T04:43:40.993Z,524.00
2022-09-07T04:44:16.074Z,524.00
2022-09-07T04:44:41.068Z,523.00
2022-09-07T04:45:11.105Z,522.00
2022-09-07T04:45:41.183Z,524.00
2022-09-07T04:46:11.299Z,524.00
2022-09-07T04:46:41.234Z,525.00
2022-09-07T04:47:11.344Z,524.00
2022-09-07T04:47:41.379Z,522.00
2022-09-07T04:48:11.412Z,519.00
2022-09-07T04:48:41.447Z,518.00
2022-09-07T04:49:11.478Z,521.00
2022-09-07T04:49:41.512Z,518.00
2022-09-07T04:50:11.541Z,519.00
2022-09-07T04:50:41.571Z,518.00
2022-09-07T04:51:11.611Z,514.00
2022-09-07T04:51:41.643Z,511.00
2022-09-07T04:52:11.673Z,510.00
2022-09-07T04:52:41.742Z,509.00
2022-09-07T04:53:11.765Z,511.00
2022-09-07T04:53:41.798Z,516.00
2022-09-07T04:54:11.840Z,512.00
2022-09-07T04:54:41.871Z,508.00
2022-09-07T04:55:11.902Z,507.00
2022-09-07T04:55:41.930Z,506.00
2022-09-07T04:56:16.771Z,506.00
2022-09-07T04:56:42.008Z,507.00
2022-09-07T04:57:12.046Z,509.00
2022-09-07T04:57:42.319Z,510.00
2022-09-07T04:58:12.104Z,509.00
2022-09-07T04:58:42.142Z,507.00
2022-09-07T04:59:12.172Z,506.00
2022-09-07T04:59:42.204Z,504.00
2022-09-07T05:00:12.237Z,505.00
2022-09-07T05:00:42.264Z,503.00
2022-09-07T05:01:12.370Z,501.00
2022-09-07T05:01:42.365Z,505.00
2022-09-07T05:02:12.544Z,509.00
2022-09-07T05:02:42.534Z,508.00
2022-09-07T05:03:12.574Z,585.00
2022-09-07T05:03:42.610Z,579.00
2022-09-07T05:04:12.642Z,516.00
2022-09-07T05:04:42.669Z,504.00
2022-09-07T05:05:12.698Z,504.00
2022-09-07T05:05:42.744Z,501.00
2022-09-07T05:06:12.769Z,501.00
2022-09-07T05:06:42.807Z,502.00
2022-09-07T05:07:12.839Z,503.00
2022-09-07T05:07:42.870Z,502.00
2022-09-07T05:08:12.908Z,501.00
2022-09-07T05:08:42.945Z,500.00
2022-09-07T05:09:12.976Z,502.00
2022-09-07T05:09:43.036Z,502.00
2022-09-07T05:10:13.089Z,502.00
2022-09-07T05:10:43.140Z,502.00
2022-09-07T05:11:13.178Z,503.00
2022-09-07T05:11:43.213Z,501.00
2022-09-07T05:12:13.248Z,500.00
2022-09-07T05:12:43.286Z,501.00
2022-09-07T05:13:13.341Z,502.00
2022-09-07T05:13:43.394Z,502.00
2022-09-07T05:14:13.428Z,501.00
2022-09-07T05:14:43.454Z,500.00
2022-09-07T05:15:13.485Z,499.00
2022-09-07T05:15:43.523Z,499.00
2022-09-07T05:16:13.607Z,498.00
2022-09-07T05:16:43.719Z,502.00
2022-09-07T05:17:13.704Z,499.00
2022-09-07T05:17:43.739Z,498.00
2022-09-07T05:18:13.777Z,499.00
2022-09-07T05:18:43.821Z,499.00
2022-09-07T05:19:13.843Z,500.00
2022-09-07T05:19:43.881Z,501.00
2022-09-07T05:20:16.338Z,499.00
2022-09-07T05:20:43.970Z,496.00
2022-09-07T05:21:14.010Z,494.00
2022-09-07T05:21:44.047Z,492.00
2022-09-07T05:22:14.090Z,494.00
2022-09-07T05:22:44.121Z,494.00
2022-09-07T05:23:14.153Z,494.00
2022-09-07T05:23:44.185Z,494.00
2022-09-07T05:24:14.221Z,494.00
2022-09-07T05:24:44.252Z,494.00
2022-09-07T05:25:14.280Z,492.00
2022-09-07T05:25:44.312Z,495.00
2022-09-07T05:26:14.350Z,498.00
2022-09-07T05:26:44.385Z,506.00
2022-09-07T05:27:14.440Z,501.00
2022-09-07T05:27:44.472Z,498.00
2022-09-07T05:28:18.709Z,497.00
2022-09-07T05:28:44.556Z,496.00
2022-09-07T05:31:44.779Z,492.00
2022-09-07T05:32:14.923Z,491.00
2022-09-07T05:32:44.931Z,493.00
2022-09-07T05:33:15.048Z,493.00
2022-09-07T05:34:30.824Z,493.00
2022-09-07T05:34:46.751Z,494.00
2022-09-07T05:35:15.153Z,495.00
2022-09-07T05:35:45.148Z,494.00
2022-09-07T05:36:15.265Z,493.00
2022-09-07T05:36:45.260Z,493.00
2022-09-07T05:37:15.284Z,491.00
2022-09-07T05:37:45.280Z,489.00
2022-09-07T05:38:15.274Z,489.00
2022-09-07T05:38:45.270Z,489.00
2022-09-07T05:39:15.385Z,491.00
2022-09-07T05:39:45.481Z,491.00
2022-09-07T05:40:15.625Z,493.00
2022-09-07T05:40:45.545Z,492.00
2022-09-07T05:41:15.572Z,494.00
2022-09-07T05:41:45.609Z,494.00
2022-09-07T05:42:15.650Z,494.00
2022-09-07T05:42:45.681Z,496.00
2022-09-07T05:43:15.722Z,499.00
2022-09-07T05:44:46.167Z,500.00
2022-09-07T05:45:15.937Z,502.00
2022-09-07T05:45:45.984Z,501.00
2022-09-07T05:46:16.069Z,501.00
2022-09-07T05:46:46.003Z,501.00
2022-09-07T05:47:16.070Z,500.00
2022-09-07T05:47:46.097Z,499.00
2022-09-07T05:48:16.136Z,499.00
2022-09-07T05:48:46.167Z,499.00
2022-09-07T05:49:16.196Z,501.00
2022-09-07T05:49:46.227Z,502.00
2022-09-07T05:50:16.255Z,501.00
2022-09-07T05:50:46.282Z,501.00
2022-09-07T05:51:16.316Z,501.00
2022-09-07T05:51:46.342Z,503.00
2022-09-07T05:52:16.372Z,504.00
2022-09-07T05:52:46.425Z,502.00
2022-09-07T05:53:16.492Z,502.00
2022-09-07T05:53:46.524Z,502.00
2022-09-07T05:54:16.556Z,502.00
2022-09-07T05:54:46.586Z,502.00
2022-09-07T05:55:29.337Z,500.00
2022-09-07T05:55:46.664Z,500.00
2022-09-07T05:56:16.694Z,501.00
2022-09-07T05:56:46.723Z,501.00
2022-09-07T05:57:16.754Z,503.00
2022-09-07T05:57:46.792Z,501.00
2022-09-07T05:58:16.826Z,499.00
2022-09-07T05:58:46.866Z,500.00
2022-09-07T05:59:16.902Z,500.00
2022-09-07T05:59:46.931Z,501.00
2022-09-07T06:00:16.957Z,502.00
2022-09-07T06:00:46.988Z,503.00
2022-09-07T06:01:17.018Z,504.00
2022-09-07T06:01:47.113Z,503.00
2022-09-07T06:02:17.199Z,504.00
2022-09-07T06:02:47.211Z,504.00
2022-09-07T06:03:17.411Z,505.00
2022-09-07T06:03:47.295Z,504.00
2022-09-07T06:04:17.323Z,501.00
2022-09-07T06:04:47.356Z,500.00
2022-09-07T06:05:17.381Z,501.00
2022-09-07T06:05:47.414Z,502.00
2022-09-07T06:06:17.451Z,501.00
2022-09-07T06:07:17.612Z,501.00
2022-09-07T06:07:22.028Z,501.00
2022-09-07T06:07:47.578Z,499.00
2022-09-07T06:08:17.606Z,498.00
2022-09-07T06:08:47.655Z,502.00
2022-09-07T06:09:17.698Z,503.00
2022-09-07T06:10:47.819Z,508.00
2022-09-07T06:11:17.863Z,507.00
2022-09-07T06:11:47.889Z,508.00
2022-09-07T06:12:17.923Z,502.00
2022-09-07T06:12:49.276Z,502.00
2022-09-07T06:13:17.997Z,501.00
2022-09-07T06:13:48.025Z,503.00
2022-09-07T06:14:18.053Z,506.00
2022-09-07T06:14:48.091Z,507.00
2022-09-07T06:15:18.133Z,502.00
2022-09-07T06:15:48.156Z,501.00
2022-09-07T06:16:18.296Z,497.00
2022-09-07T06:16:48.324Z,496.00
2022-09-07T06:17:18.360Z,494.00
2022-09-07T06:17:48.406Z,496.00
2022-09-07T06:18:18.476Z,495.00
2022-09-07T06:18:48.477Z,496.00
2022-09-07T06:19:18.508Z,498.00
2022-09-07T06:19:48.537Z,503.00